createdAt,value
2023-03-28T00:02:08.357Z,1.52
2023-03-28T00:04:53.845Z,1.51
2023-03-28T00:07:39.497Z,1.50
2023-03-28T00:10:24.389Z,1.56
2023-03-28T00:13:10.593Z,1.56
2023-03-28T00:15:55.702Z,1.63
2023-03-28T00:18:41.627Z,1.59
2023-03-28T00:21:29.179Z,1.57
2023-03-28T00:24:20.287Z,1.66
2023-03-28T00:27:06.433Z,1.49
2023-03-28T00:29:52.081Z,1.62
2023-03-28T00:32:37.301Z,1.64
2023-03-28T00:35:22.824Z,1.66
2023-03-28T00:38:08.008Z,1.63
2023-03-28T00:40:54.270Z,1.68
2023-03-28T00:43:47.573Z,1.69
2023-03-28T00:46:39.873Z,1.73
2023-03-28T00:49:26.179Z,1.69
2023-03-28T00:52:13.234Z,1.61
2023-03-28T00:54:59.735Z,1.51
2023-03-28T00:57:46.393Z,1.62
2023-03-28T01:00:33.393Z,1.53
2023-03-28T01:03:20.136Z,1.52
2023-03-28T01:06:06.195Z,1.39
2023-03-28T01:08:52.235Z,1.20
2023-03-28T01:11:40.492Z,1.30
2023-03-28T01:14:28.301Z,1.18
2023-03-28T01:17:13.962Z,1.26
2023-03-28T01:20:09.158Z,1.28
2023-03-28T01:23:08.430Z,1.28
2023-03-28T01:26:22.917Z,1.10
2023-03-28T01:29:56.682Z,1.29
2023-03-28T01:32:54.110Z,1.20
2023-03-28T01:36:03.951Z,1.07
2023-03-28T01:39:03.877Z,1.08
2023-03-28T01:42:30.816Z,1.24
2023-03-28T01:45:41.574Z,1.14
2023-03-28T01:48:37.063Z,1.11
2023-03-28T01:51:34.236Z,1.08
2023-03-28T01:54:26.625Z,1.08
2023-03-28T01:57:23.197Z,0.96
2023-03-28T02:00:19.390Z,0.89
2023-03-28T02:03:31.837Z,0.76
2023-03-28T02:06:18.135Z,0.71
2023-03-28T02:09:05.441Z,0.71
2023-03-28T02:11:56.611Z,0.65
2023-03-28T02:14:44.153Z,0.59
2023-03-28T02:17:30.117Z,0.60
2023-03-28T02:20:19.021Z,0.64
2023-03-28T02:23:22.514Z,0.61
2023-03-28T02:26:08.175Z,0.59
2023-03-28T02:28:56.572Z,0.57
2023-03-28T02:31:41.850Z,0.54
2023-03-28T02:34:26.917Z,0.49
2023-03-28T02:37:19.969Z,0.55
2023-03-28T02:40:14.407Z,0.58
2023-03-28T02:43:11.450Z,0.54
2023-03-28T02:46:17.665Z,0.36
2023-03-28T02:49:14.838Z,0.46
2023-03-28T02:52:16.968Z,0.50
2023-03-28T02:55:11.508Z,0.56
2023-03-28T02:58:05.445Z,0.52
2023-03-28T03:00:50.777Z,0.29
2023-03-28T03:03:37.228Z,0.21
2023-03-28T03:06:22.792Z,0.15
2023-03-28T03:09:08.054Z,0.04
2023-03-28T03:11:52.893Z,0.08
2023-03-28T03:14:37.875Z,0.18
2023-03-28T03:17:23.211Z,0.00
2023-03-28T03:20:08.767Z,-0.14
2023-03-28T03:22:56.683Z,0.03
2023-03-28T03:25:42.561Z,-0.07
2023-03-28T03:28:27.461Z,-0.22
2023-03-28T03:31:12.610Z,-0.19
2023-03-28T03:33:57.576Z,-0.26
2023-03-28T03:36:42.332Z,-0.16
2023-03-28T03:39:27.301Z,-0.21
2023-03-28T03:42:12.754Z,-0.14
2023-03-28T03:44:57.814Z,-0.14
2023-03-28T03:47:43.726Z,-0.28
2023-03-28T03:50:29.163Z,-0.24
2023-03-28T03:53:14.882Z,-0.25
2023-03-28T03:56:01.664Z,-0.25
2023-03-28T03:58:46.830Z,-0.24
2023-03-28T04:01:31.801Z,-0.39
2023-03-28T04:04:16.671Z,-0.42
2023-03-28T04:07:02.547Z,-0.26
2023-03-28T04:09:47.525Z,-0.30
2023-03-28T04:12:32.494Z,-0.35
2023-03-28T04:15:18.128Z,-0.35
2023-03-28T04:18:05.704Z,-0.40
2023-03-28T04:20:55.223Z,-0.29
2023-03-28T04:23:40.696Z,-0.26
2023-03-28T04:26:26.205Z,-0.27
2023-03-28T04:29:12.117Z,-0.26
2023-03-28T04:31:58.369Z,-0.30
2023-03-28T04:34:43.741Z,-0.20
2023-03-28T04:37:28.915Z,-0.27
2023-03-28T04:40:14.083Z,-0.29
2023-03-28T04:42:58.991Z,-0.32
2023-03-28T04:45:44.861Z,-0.37
2023-03-28T04:48:30.316Z,-0.37
2023-03-28T04:51:15.974Z,-0.34
2023-03-28T04:54:00.844Z,-0.42
2023-03-28T04:56:46.723Z,-0.30
2023-03-28T04:59:32.166Z,-0.45
2023-03-28T05:02:17.102Z,-0.33
2023-03-28T05:05:01.998Z,-0.39
2023-03-28T05:07:47.253Z,-0.33
2023-03-28T05:10:32.380Z,-0.25
2023-03-28T05:13:18.126Z,-0.23
2023-03-28T05:16:04.230Z,-0.42
2023-03-28T05:18:49.307Z,-0.60
2023-03-28T05:21:34.218Z,-0.46
2023-03-28T05:24:19.080Z,-0.34
2023-03-28T05:27:04.291Z,-0.38
2023-03-28T05:29:49.495Z,-0.31
2023-03-28T05:32:35.090Z,-0.30
2023-03-28T05:35:20.490Z,-0.49
2023-03-28T05:38:05.840Z,-0.60
2023-03-28T05:40:50.983Z,-0.64
2023-03-28T05:43:36.089Z,-0.66
2023-03-28T05:46:20.808Z,-0.54
2023-03-28T05:49:06.322Z,-0.47
2023-03-28T05:51:51.737Z,-0.55
2023-03-28T05:54:37.110Z,-0.59
2023-03-28T05:57:23.107Z,-0.31
2023-03-28T06:00:08.897Z,-0.13
2023-03-28T06:02:53.932Z,-0.01
2023-03-28T06:05:38.912Z,0.22
2023-03-28T06:08:24.267Z,0.27
2023-03-28T06:11:09.715Z,0.31
2023-03-28T06:13:55.145Z,0.56
2023-03-28T06:16:40.658Z,1.01
2023-03-28T06:19:26.299Z,1.60
2023-03-28T06:22:11.409Z,1.90
2023-03-28T06:24:56.807Z,2.21
2023-03-28T06:27:42.118Z,2.41
2023-03-28T06:30:26.830Z,2.32
2023-03-28T06:33:12.440Z,1.92
2023-03-28T06:35:57.789Z,2.09
2023-03-28T06:38:43.233Z,2.28
2023-03-28T06:41:28.818Z,3.09
2023-03-28T06:44:14.085Z,2.91
2023-03-28T06:46:59.027Z,3.04
2023-03-28T06:49:44.150Z,2.24
2023-03-28T06:52:29.086Z,2.21
2023-03-28T06:55:14.008Z,2.20
2023-03-28T06:57:58.900Z,3.05
2023-03-28T07:00:44.146Z,3.09
2023-03-28T07:03:30.450Z,2.17
2023-03-28T07:06:15.857Z,1.97
2023-03-28T07:09:01.864Z,1.86
2023-03-28T07:11:48.046Z,2.26
2023-03-28T07:14:33.042Z,1.98
2023-03-28T07:17:18.227Z,2.15
2023-03-28T07:20:04.350Z,2.89
2023-03-28T07:22:49.876Z,3.67
2023-03-28T07:25:34.903Z,3.78
2023-03-28T07:28:20.089Z,3.66
2023-03-28T07:31:05.946Z,3.93
2023-03-28T07:33:53.755Z,3.95
2023-03-28T07:36:38.856Z,3.37
2023-03-28T07:39:23.773Z,3.78
2023-03-28T07:42:13.776Z,3.78
2023-03-28T07:44:58.721Z,3.75
2023-03-28T07:47:43.640Z,4.23
2023-03-28T07:50:29.014Z,4.68
2023-03-28T07:53:14.490Z,5.30
2023-03-28T07:55:59.783Z,5.77
2023-03-28T07:58:44.785Z,4.94
2023-03-28T08:01:30.076Z,4.23
2023-03-28T08:04:15.524Z,4.75
2023-03-28T08:07:00.905Z,5.73
2023-03-28T08:09:46.086Z,6.37
2023-03-28T08:12:31.536Z,6.86
2023-03-28T08:15:16.770Z,7.06
2023-03-28T08:18:02.483Z,7.23
2023-03-28T08:20:48.476Z,6.36
2023-03-28T08:23:33.581Z,6.52
2023-03-28T08:26:19.592Z,6.05
2023-03-28T08:29:05.587Z,5.42
2023-03-28T08:31:50.886Z,6.11
2023-03-28T08:34:37.510Z,7.24
2023-03-28T08:37:22.740Z,7.07
2023-03-28T08:40:11.000Z,4.90
2023-03-28T08:43:22.297Z,4.46
2023-03-28T08:46:12.890Z,5.33
2023-03-28T08:49:07.385Z,6.72
2023-03-28T08:51:58.265Z,7.13
2023-03-28T08:54:49.888Z,7.86
2023-03-28T08:57:38.032Z,7.27
2023-03-28T09:00:28.101Z,7.21
2023-03-28T09:03:16.427Z,7.58
2023-03-28T09:06:28.302Z,8.57
2023-03-28T09:09:42.140Z,8.49
2023-03-28T09:12:46.965Z,8.67
2023-03-28T09:16:00.841Z,7.84
2023-03-28T09:18:55.254Z,7.41
2023-03-28T09:21:40.403Z,6.84
2023-03-28T09:24:30.232Z,6.91
2023-03-28T09:27:22.310Z,7.07
2023-03-28T09:30:29.218Z,6.73
2023-03-28T09:33:20.478Z,6.72
2023-03-28T09:36:19.003Z,6.38
2023-03-28T09:39:14.235Z,6.35
2023-03-28T09:42:25.479Z,6.09
2023-03-28T09:45:36.565Z,5.71
2023-03-28T09:48:33.327Z,5.65
2023-03-28T09:51:19.570Z,5.42
2023-03-28T09:54:06.685Z,5.84
2023-03-28T09:56:52.926Z,6.03
2023-03-28T09:59:38.282Z,6.10
2023-03-28T10:02:33.981Z,5.98
2023-03-28T10:05:39.124Z,6.13
2023-03-28T10:08:35.690Z,6.18
2023-03-28T10:11:20.827Z,6.31
2023-03-28T10:14:05.912Z,6.80
2023-03-28T10:16:51.859Z,6.39
2023-03-28T10:19:41.798Z,6.09
2023-03-28T10:22:32.335Z,5.87
2023-03-28T10:25:31.887Z,5.27
2023-03-28T10:28:27.569Z,5.25
2023-03-28T10:31:25.307Z,5.53
2023-03-28T10:34:24.587Z,6.29
2023-03-28T10:37:23.846Z,5.82
2023-03-28T10:40:18.215Z,5.72
2023-03-28T10:43:10.920Z,5.82
2023-03-28T10:46:01.444Z,5.70
2023-03-28T10:48:56.352Z,5.82
2023-03-28T10:51:43.368Z,6.26
2023-03-28T10:54:41.076Z,6.47
2023-03-28T10:57:39.604Z,6.55
2023-03-28T11:01:04.543Z,6.19
2023-03-28T11:04:14.116Z,5.77
2023-03-28T11:07:10.583Z,5.89
2023-03-28T11:10:07.146Z,5.89
2023-03-28T11:12:59.554Z,5.35
2023-03-28T11:16:03.710Z,5.38
2023-03-28T11:18:57.955Z,5.38
2023-03-28T11:22:03.523Z,5.50
2023-03-28T11:25:19.672Z,6.06
2023-03-28T11:28:25.057Z,5.59
2023-03-28T11:31:18.578Z,5.92
2023-03-28T11:34:17.380Z,5.64
2023-03-28T11:37:08.600Z,6.11
2023-03-28T11:40:05.305Z,6.25
2023-03-28T11:42:56.616Z,6.24
2023-03-28T11:45:54.172Z,6.65
2023-03-28T11:49:08.950Z,6.22
2023-03-28T11:52:31.623Z,6.39
2023-03-28T11:55:25.458Z,6.42
2023-03-28T11:58:26.288Z,6.36
2023-03-28T12:01:23.647Z,6.30
2023-03-28T12:04:16.452Z,6.92
2023-03-28T12:07:20.722Z,7.15
2023-03-28T12:10:18.737Z,6.20
2023-03-28T12:13:14.070Z,5.96
2023-03-28T12:16:05.285Z,5.93
2023-03-28T12:18:59.668Z,6.13
2023-03-28T12:21:57.103Z,6.47
2023-03-28T12:24:49.459Z,6.69
2023-03-28T12:28:02.965Z,6.21
2023-03-28T12:31:08.819Z,6.15
2023-03-28T12:34:22.989Z,6.22
2023-03-28T12:37:22.225Z,6.11
2023-03-28T12:40:29.969Z,6.12
2023-03-28T12:43:18.243Z,6.25
2023-03-28T12:46:06.863Z,6.20
2023-03-28T12:49:12.559Z,6.41
2023-03-28T12:52:02.600Z,6.38
2023-03-28T12:55:03.074Z,6.64
2023-03-28T12:57:48.629Z,6.98
2023-03-28T13:00:43.047Z,6.94
2023-03-28T13:03:57.617Z,6.71
2023-03-28T13:06:58.837Z,7.21
2023-03-28T13:09:53.372Z,7.50
2023-03-28T13:13:01.382Z,7.83
2023-03-28T13:16:05.835Z,8.20
2023-03-28T13:19:36.303Z,7.46
2023-03-28T13:22:50.503Z,6.88
2023-03-28T13:25:37.351Z,7.03
2023-03-28T13:28:34.531Z,7.39
2023-03-28T13:31:24.958Z,7.28
2023-03-28T13:34:22.379Z,7.97
2023-03-28T13:37:23.421Z,7.37
2023-03-28T13:40:43.612Z,7.41
2023-03-28T13:43:35.301Z,7.31
2023-03-28T13:46:45.343Z,7.46
2023-03-28T13:49:30.557Z,7.40
2023-03-28T13:52:22.748Z,7.89
2023-03-28T13:55:20.427Z,8.44
2023-03-28T13:58:05.479Z,8.17
2023-03-28T14:01:06.873Z,8.07
2023-03-28T14:03:54.094Z,7.50
2023-03-28T14:06:42.078Z,7.63
2023-03-28T14:09:27.144Z,7.58
2023-03-28T14:12:14.246Z,7.37
2023-03-28T14:15:01.011Z,7.44
2023-03-28T14:17:46.476Z,7.51
2023-03-28T14:20:33.974Z,7.37
2023-03-28T14:23:33.018Z,7.14
2023-03-28T14:26:20.073Z,7.35
2023-03-28T14:29:13.684Z,7.53
2023-03-28T14:31:58.697Z,7.46
2023-03-28T14:34:43.874Z,7.54
2023-03-28T14:37:29.417Z,7.22
2023-03-28T14:40:35.613Z,7.48
2023-03-28T14:43:28.192Z,7.74
2023-03-28T14:46:13.318Z,7.53
2023-03-28T14:49:02.019Z,7.74
2023-03-28T14:51:54.032Z,7.81
2023-03-28T14:54:44.792Z,7.69
2023-03-28T14:57:30.925Z,7.54
2023-03-28T15:00:20.274Z,7.85
2023-03-28T15:03:15.573Z,7.80
2023-03-28T15:06:02.259Z,8.37
2023-03-28T15:08:49.117Z,8.13
2023-03-28T15:11:36.385Z,8.08
2023-03-28T15:14:39.243Z,7.60
2023-03-28T15:17:25.132Z,7.52
2023-03-28T15:20:17.863Z,7.43
2023-03-28T15:23:12.629Z,7.55
2023-03-28T15:26:07.404Z,8.15
2023-03-28T15:28:55.079Z,8.94
2023-03-28T15:31:41.046Z,9.17
2023-03-28T15:34:27.003Z,8.96
2023-03-28T15:37:16.098Z,8.46
2023-03-28T15:40:21.744Z,8.29
2023-03-28T15:43:08.010Z,8.11
2023-03-28T15:45:59.596Z,7.94
2023-03-28T15:48:45.021Z,7.89
2023-03-28T15:51:31.535Z,7.95
2023-03-28T15:54:30.353Z,7.80
2023-03-28T15:57:20.058Z,7.80
2023-03-28T16:00:06.320Z,7.81
2023-03-28T16:02:51.448Z,7.77
2023-03-28T16:05:37.758Z,7.78
2023-03-28T16:08:25.322Z,8.04
2023-03-28T16:11:16.126Z,7.90
2023-03-28T16:14:01.508Z,7.82
2023-03-28T16:16:46.816Z,7.82
2023-03-28T16:19:31.926Z,7.90
2023-03-28T16:22:17.308Z,7.85
2023-03-28T16:25:03.297Z,7.62
2023-03-28T16:27:48.711Z,7.60
2023-03-28T16:30:36.749Z,7.68
2023-03-28T16:33:21.934Z,7.81
2023-03-28T16:36:07.698Z,7.78
2023-03-28T16:38:52.934Z,7.80
2023-03-28T16:41:38.439Z,7.79
2023-03-28T16:44:23.768Z,7.73
2023-03-28T16:47:09.271Z,7.66
2023-03-28T16:49:54.600Z,7.69
2023-03-28T16:52:40.957Z,7.56
2023-03-28T16:55:26.396Z,7.50
2023-03-28T16:58:11.682Z,7.51
2023-03-28T17:00:57.341Z,7.50
2023-03-28T17:03:42.672Z,7.50
2023-03-28T17:06:28.384Z,7.46
2023-03-28T17:09:13.867Z,7.46
2023-03-28T17:11:59.221Z,7.43
2023-03-28T17:14:44.661Z,7.35
2023-03-28T17:17:29.655Z,7.37
2023-03-28T17:20:15.345Z,7.29
2023-03-28T17:23:00.905Z,7.34
2023-03-28T17:25:54.503Z,7.31
2023-03-28T17:28:46.856Z,7.21
2023-03-28T17:31:32.426Z,7.23
2023-03-28T17:34:18.282Z,7.19
2023-03-28T17:37:03.173Z,7.22
2023-03-28T17:39:48.537Z,7.28
2023-03-28T17:42:34.308Z,7.18
2023-03-28T17:45:19.460Z,7.19
2023-03-28T17:48:04.713Z,7.17
2023-03-28T17:50:54.980Z,7.10
2023-03-28T17:53:42.749Z,7.09
2023-03-28T17:56:28.461Z,7.19
2023-03-28T17:59:13.838Z,7.12
2023-03-28T18:01:59.358Z,7.09
2023-03-28T18:04:44.434Z,7.15
2023-03-28T18:07:29.722Z,7.23
2023-03-28T18:10:16.196Z,7.22
2023-03-28T18:13:01.596Z,7.20
2023-03-28T18:15:46.528Z,7.16
2023-03-28T18:18:32.881Z,7.18
2023-03-28T18:21:20.603Z,7.07
2023-03-28T18:24:05.946Z,6.92
2023-03-28T18:26:51.014Z,6.88
2023-03-28T18:29:36.411Z,6.94
2023-03-28T18:32:23.380Z,6.88
2023-03-28T18:35:08.902Z,6.85
2023-03-28T18:37:55.777Z,6.77
2023-03-28T18:40:42.107Z,6.74
2023-03-28T18:43:27.183Z,6.74
2023-03-28T18:46:15.204Z,6.64
2023-03-28T18:49:01.107Z,6.51
2023-03-28T18:51:46.417Z,6.62
2023-03-28T18:54:33.730Z,6.55
2023-03-28T18:57:18.872Z,6.62
2023-03-28T19:00:04.966Z,6.66
2023-03-28T19:02:50.332Z,6.65
2023-03-28T19:05:35.784Z,6.56
2023-03-28T19:08:21.286Z,6.58
2023-03-28T19:11:10.249Z,6.51
2023-03-28T19:13:55.554Z,6.48
2023-03-28T19:16:41.259Z,6.42
2023-03-28T19:19:26.675Z,6.40
2023-03-28T19:22:11.814Z,6.38
2023-03-28T19:24:57.234Z,6.28
2023-03-28T19:27:42.571Z,6.25
2023-03-28T19:30:27.932Z,6.24
2023-03-28T19:33:13.635Z,6.28
2023-03-28T19:35:59.051Z,6.19
2023-03-28T19:38:44.270Z,6.17
2023-03-28T19:41:29.670Z,6.13
2023-03-28T19:44:15.228Z,6.15
2023-03-28T19:47:00.630Z,6.20
2023-03-28T19:49:45.612Z,6.10
2023-03-28T19:52:30.674Z,6.09
2023-03-28T19:55:16.061Z,6.17
2023-03-28T19:58:01.477Z,6.14
2023-03-28T20:00:47.219Z,6.06
2023-03-28T20:03:33.065Z,6.07
2023-03-28T20:06:20.279Z,6.16
2023-03-28T20:09:05.414Z,6.14
2023-03-28T20:11:50.960Z,6.12
2023-03-28T20:14:36.249Z,6.14
2023-03-28T20:17:21.416Z,6.17
2023-03-28T20:20:07.670Z,6.09
2023-03-28T20:22:52.995Z,6.06
2023-03-28T20:25:40.861Z,6.04
2023-03-28T20:28:25.885Z,6.01
2023-03-28T20:31:12.015Z,6.00
2023-03-28T20:33:57.123Z,6.00
2023-03-28T20:36:42.416Z,5.98
2023-03-28T20:39:27.891Z,5.98
2023-03-28T20:42:12.950Z,5.94
2023-03-28T20:44:58.331Z,5.96
2023-03-28T20:47:43.817Z,5.98
2023-03-28T20:50:30.154Z,5.92
2023-03-28T20:53:15.107Z,5.93
2023-03-28T20:56:02.228Z,5.86
2023-03-28T20:58:48.890Z,5.84
2023-03-28T21:01:34.671Z,5.83
2023-03-28T21:04:22.000Z,5.83
2023-03-28T21:07:07.402Z,5.84
2023-03-28T21:09:52.758Z,5.85
2023-03-28T21:12:37.558Z,5.86
2023-03-28T21:15:22.830Z,5.84
2023-03-28T21:18:08.357Z,5.83
2023-03-28T21:20:53.677Z,5.82
2023-03-28T21:23:41.018Z,5.79
2023-03-28T21:26:26.323Z,5.85
2023-03-28T21:29:11.537Z,5.89
2023-03-28T21:31:56.827Z,5.87
2023-03-28T21:34:42.259Z,5.98
2023-03-28T21:37:27.716Z,5.99
2023-03-28T21:40:12.742Z,6.03
2023-03-28T21:42:58.054Z,6.07
2023-03-28T21:45:44.149Z,6.06
2023-03-28T21:48:29.492Z,6.05
2023-03-28T21:51:15.344Z,6.09
2023-03-28T21:54:00.706Z,5.99
2023-03-28T21:56:45.981Z,5.97
2023-03-28T21:59:31.387Z,5.94
2023-03-28T22:02:17.146Z,5.95
2023-03-28T22:05:02.459Z,5.94
2023-03-28T22:07:49.074Z,5.94
2023-03-28T22:10:36.107Z,5.88
2023-03-28T22:13:21.443Z,5.84
2023-03-28T22:16:07.784Z,5.88
2023-03-28T22:18:52.812Z,5.83
2023-03-28T22:21:38.113Z,5.85
2023-03-28T22:24:23.634Z,5.79
2023-03-28T22:27:09.286Z,5.77
2023-03-28T22:29:54.689Z,5.69
2023-03-28T22:32:40.203Z,5.62
2023-03-28T22:35:25.555Z,5.59
2023-03-28T22:38:10.304Z,5.54
2023-03-28T22:40:55.527Z,5.44
2023-03-28T22:43:40.603Z,5.37
2023-03-28T22:46:26.023Z,5.29
2023-03-28T22:49:11.588Z,5.22
2023-03-28T22:51:57.027Z,5.19
2023-03-28T22:54:42.339Z,5.13
2023-03-28T22:57:27.757Z,5.13
2023-03-28T23:00:14.461Z,5.08
2023-03-28T23:03:01.615Z,5.04
2023-03-28T23:05:46.627Z,5.01
2023-03-28T23:08:33.182Z,4.96
2023-03-28T23:11:18.352Z,4.93
2023-03-28T23:14:03.906Z,4.92
2023-03-28T23:16:49.057Z,4.83
2023-03-28T23:19:34.584Z,4.77
2023-03-28T23:22:19.812Z,4.73
2023-03-28T23:25:05.258Z,4.64
2023-03-28T23:27:50.693Z,4.65
2023-03-28T23:30:35.597Z,4.64
2023-03-28T23:33:20.555Z,4.60
2023-03-28T23:36:06.543Z,4.56
2023-03-28T23:38:51.935Z,4.58
2023-03-28T23:41:37.058Z,4.54
2023-03-28T23:44:22.540Z,4.53
2023-03-28T23:47:07.923Z,4.48
2023-03-28T23:49:53.251Z,4.49
2023-03-28T23:52:38.107Z,4.50
2023-03-28T23:55:23.446Z,4.50
2023-03-28T23:58:08.275Z,4.42
